createdAt,value
2022-12-06T00:01:25.784Z,8.57
2022-12-06T00:03:55.678Z,9.27
2022-12-06T00:06:24.529Z,10.18
2022-12-06T00:08:52.667Z,8.85
2022-12-06T00:11:22.739Z,8.30
2022-12-06T00:13:54.366Z,8.25
2022-12-06T00:16:21.893Z,8.50
2022-12-06T00:18:49.348Z,8.02
2022-12-06T00:21:22.486Z,8.52
2022-12-06T00:23:53.064Z,8.27
2022-12-06T00:26:21.639Z,8.52
2022-12-06T00:28:49.363Z,9.18
2022-12-06T00:31:18.428Z,8.80
2022-12-06T00:33:46.000Z,8.43
2022-12-06T00:36:20.220Z,8.20
2022-12-06T00:38:47.908Z,8.68
2022-12-06T00:41:17.466Z,9.27
2022-12-06T00:43:45.411Z,9.25
2022-12-06T00:46:17.815Z,8.50
2022-12-06T00:48:46.153Z,7.70
2022-12-06T00:51:13.735Z,8.13
2022-12-06T00:53:41.281Z,8.95
2022-12-06T00:56:08.870Z,7.93
2022-12-06T00:58:36.240Z,9.05
2022-12-06T01:01:15.997Z,8.75
2022-12-06T01:03:44.318Z,8.15
2022-12-06T01:06:14.897Z,7.68
2022-12-06T01:08:42.814Z,7.68
2022-12-06T01:11:10.581Z,7.10
2022-12-06T01:13:37.584Z,8.65
2022-12-06T01:16:09.864Z,7.60
2022-12-06T01:18:37.381Z,8.40
2022-12-06T01:21:10.016Z,7.47
2022-12-06T01:23:36.946Z,8.07
2022-12-06T01:26:06.013Z,7.65
2022-12-06T01:28:33.398Z,7.88
2022-12-06T01:31:00.825Z,8.20
2022-12-06T01:33:28.208Z,8.60
2022-12-06T01:35:55.561Z,8.38
2022-12-06T01:38:22.842Z,8.32
2022-12-06T01:40:50.300Z,8.10
2022-12-06T01:43:35.079Z,8.63
2022-12-06T01:46:26.426Z,8.48
2022-12-06T01:49:13.514Z,7.90
2022-12-06T01:51:45.914Z,9.55
2022-12-06T01:54:14.758Z,8.38
2022-12-06T01:56:42.385Z,8.65
2022-12-06T01:59:10.343Z,9.02
2022-12-06T02:01:39.316Z,8.93
2022-12-06T02:04:07.177Z,7.90
2022-12-06T02:06:34.941Z,6.80
2022-12-06T02:09:05.192Z,7.80
2022-12-06T02:14:04.761Z,8.85
2022-12-06T02:16:46.582Z,9.32
2022-12-06T02:19:35.836Z,8.52
2022-12-06T02:22:03.158Z,9.88
2022-12-06T02:24:54.130Z,9.48
2022-12-06T02:27:32.706Z,9.57
2022-12-06T02:30:18.174Z,9.60
2022-12-06T02:32:57.194Z,10.00
2022-12-06T02:35:55.468Z,9.10
2022-12-06T02:38:36.260Z,8.48
2022-12-06T02:41:12.194Z,9.20
2022-12-06T02:43:45.918Z,8.65
2022-12-06T02:46:15.007Z,8.82
2022-12-06T02:48:45.558Z,8.48
2022-12-06T02:51:15.792Z,8.95
2022-12-06T02:53:47.373Z,8.30
2022-12-06T02:56:16.625Z,8.32
2022-12-06T02:58:43.531Z,7.88
2022-12-06T03:01:39.841Z,8.75
2022-12-06T03:04:34.997Z,9.60
2022-12-06T03:07:29.324Z,9.23
2022-12-06T03:10:27.389Z,9.10
2022-12-06T03:12:54.763Z,7.55
2022-12-06T03:15:40.808Z,8.88
2022-12-06T03:18:31.988Z,9.95
2022-12-06T03:21:13.646Z,9.13
2022-12-06T03:23:45.318Z,10.07
2022-12-06T03:26:16.717Z,9.18
2022-12-06T03:28:46.972Z,9.52
2022-12-06T03:33:55.145Z,8.75
2022-12-06T03:36:23.464Z,9.57
2022-12-06T03:39:02.799Z,10.30
2022-12-06T03:41:36.445Z,10.13
2022-12-06T03:44:03.950Z,10.40
2022-12-06T03:46:35.391Z,11.13
2022-12-06T03:49:06.828Z,11.10
2022-12-06T03:51:36.562Z,9.60
2022-12-06T03:54:06.765Z,9.90
2022-12-06T03:56:36.897Z,9.48
2022-12-06T03:59:08.973Z,10.30
2022-12-06T04:01:36.582Z,9.57
2022-12-06T04:04:04.261Z,10.13
2022-12-06T04:06:31.365Z,9.88
2022-12-06T04:09:18.609Z,9.85
2022-12-06T04:11:46.053Z,9.40
2022-12-06T04:14:13.020Z,9.55
2022-12-06T04:16:59.122Z,9.05
2022-12-06T04:19:26.372Z,9.93
2022-12-06T04:22:11.696Z,10.00
2022-12-06T04:24:39.065Z,9.18
2022-12-06T04:27:25.424Z,9.52
2022-12-06T04:30:11.391Z,9.20
2022-12-06T04:32:57.352Z,8.88
2022-12-06T04:35:43.144Z,9.23
2022-12-06T04:38:29.034Z,8.07
2022-12-06T04:40:56.328Z,8.10
2022-12-06T04:43:42.170Z,8.07
2022-12-06T04:46:14.017Z,8.40
2022-12-06T04:48:41.341Z,8.73
2022-12-06T04:51:13.173Z,7.85
2022-12-06T04:53:40.595Z,7.30
2022-12-06T04:56:08.048Z,8.32
2022-12-06T04:58:35.490Z,7.85
2022-12-06T05:01:02.929Z,7.63
2022-12-06T05:03:30.465Z,8.70
2022-12-06T05:05:57.916Z,8.73
2022-12-06T05:08:25.260Z,8.23
2022-12-06T05:10:52.323Z,8.05
2022-12-06T05:13:20.283Z,7.60
2022-12-06T05:15:56.289Z,7.72
2022-12-06T05:18:23.925Z,7.72
2022-12-06T05:20:51.359Z,7.60
2022-12-06T05:23:18.733Z,7.57
2022-12-06T05:25:45.598Z,7.50
2022-12-06T05:28:12.897Z,7.93
2022-12-06T05:30:40.640Z,7.35
2022-12-06T05:33:07.944Z,7.57
2022-12-06T05:35:35.438Z,7.90
2022-12-06T05:38:02.748Z,7.13
2022-12-06T05:40:30.050Z,8.25
2022-12-06T05:42:57.421Z,7.43
2022-12-06T05:45:24.709Z,7.78
2022-12-06T05:47:52.061Z,7.85
2022-12-06T05:50:18.972Z,6.88
2022-12-06T05:52:48.577Z,6.60
2022-12-06T05:55:15.507Z,7.47
2022-12-06T05:57:47.259Z,7.43
2022-12-06T06:00:15.477Z,6.50
2022-12-06T06:02:42.964Z,7.05
2022-12-06T06:05:10.700Z,6.78
2022-12-06T06:07:38.213Z,7.15
2022-12-06T06:10:06.428Z,6.53
2022-12-06T06:12:33.465Z,6.50
2022-12-06T06:15:00.860Z,6.95
2022-12-06T06:17:28.244Z,7.00
2022-12-06T06:19:55.557Z,6.38
2022-12-06T06:22:24.432Z,7.25
2022-12-06T06:24:51.721Z,6.78
2022-12-06T06:27:19.096Z,6.65
2022-12-06T06:29:46.383Z,6.72
2022-12-06T06:32:13.815Z,6.82
2022-12-06T06:34:41.200Z,5.88
2022-12-06T06:37:08.519Z,7.35
2022-12-06T06:39:35.840Z,6.90
2022-12-06T06:42:03.168Z,6.38
2022-12-06T06:44:30.464Z,6.15
2022-12-06T06:46:57.765Z,5.22
2022-12-06T06:49:24.822Z,5.60
2022-12-06T06:51:52.128Z,5.38
2022-12-06T06:54:19.489Z,4.97
2022-12-06T06:56:46.792Z,5.63
2022-12-06T06:59:14.083Z,5.25
2022-12-06T07:01:41.538Z,5.15
2022-12-06T07:04:08.539Z,6.30
2022-12-06T07:06:35.825Z,5.22
2022-12-06T07:09:03.107Z,4.90
2022-12-06T07:11:30.419Z,5.03
2022-12-06T07:13:57.700Z,5.45
2022-12-06T07:16:25.077Z,6.65
2022-12-06T07:18:52.442Z,6.65
2022-12-06T07:21:19.793Z,6.38
2022-12-06T07:23:46.807Z,7.13
2022-12-06T07:26:19.240Z,6.53
2022-12-06T07:28:47.720Z,5.10
2022-12-06T07:31:15.832Z,5.20
2022-12-06T07:33:43.295Z,6.45
2022-12-06T07:36:13.229Z,6.22
2022-12-06T07:38:47.553Z,6.40
2022-12-06T07:41:33.498Z,5.40
2022-12-06T07:44:21.398Z,5.25
2022-12-06T07:46:49.110Z,5.22
2022-12-06T07:49:17.198Z,4.90
2022-12-06T07:51:45.749Z,4.68
2022-12-06T07:54:13.774Z,4.80
2022-12-06T07:56:41.294Z,4.40
2022-12-06T07:59:08.591Z,5.55
2022-12-06T08:01:35.579Z,4.47
2022-12-06T08:04:05.034Z,4.35
2022-12-06T08:06:32.850Z,4.68
2022-12-06T08:09:00.229Z,4.25
2022-12-06T08:11:28.745Z,4.85
2022-12-06T08:13:56.219Z,5.40
2022-12-06T08:16:23.562Z,4.72
2022-12-06T08:18:52.687Z,5.00
2022-12-06T08:21:20.037Z,4.32
2022-12-06T08:23:47.344Z,5.07
2022-12-06T08:26:16.171Z,4.80
2022-12-06T08:28:43.556Z,5.00
2022-12-06T08:31:16.844Z,5.10
2022-12-06T08:33:44.221Z,4.45
2022-12-06T08:36:20.069Z,4.63
2022-12-06T08:38:49.003Z,4.30
2022-12-06T08:41:34.891Z,4.97
2022-12-06T08:44:02.768Z,5.18
2022-12-06T08:46:31.266Z,5.25
2022-12-06T08:48:58.593Z,4.88
2022-12-06T08:51:26.046Z,4.60
2022-12-06T08:53:53.966Z,4.55
2022-12-06T08:56:21.366Z,4.30
2022-12-06T08:58:48.769Z,4.35
2022-12-06T09:01:21.388Z,4.93
2022-12-06T09:03:48.427Z,5.10
2022-12-06T09:06:16.009Z,4.57
2022-12-06T09:08:43.313Z,6.47
2022-12-06T09:11:10.635Z,5.13
2022-12-06T09:13:38.858Z,5.03
2022-12-06T09:16:14.532Z,4.88
2022-12-06T09:18:42.045Z,4.75
2022-12-06T09:21:12.310Z,5.15
2022-12-06T09:23:39.353Z,5.53
2022-12-06T09:26:07.253Z,4.97
2022-12-06T09:28:39.578Z,4.55
2022-12-06T09:31:08.187Z,4.97
2022-12-06T09:33:36.022Z,4.80
2022-12-06T09:36:13.971Z,5.35
2022-12-06T09:38:42.990Z,5.60
2022-12-06T09:41:29.272Z,4.60
2022-12-06T09:44:37.938Z,4.57
2022-12-06T09:47:20.399Z,5.43
2022-12-06T09:49:47.652Z,6.05
2022-12-06T09:52:37.759Z,5.43
2022-12-06T09:55:30.960Z,4.50
2022-12-06T09:58:10.512Z,6.30
2022-12-06T10:01:12.299Z,4.88
2022-12-06T10:03:45.718Z,4.13
2022-12-06T10:06:15.998Z,3.90
2022-12-06T10:11:58.407Z,13.13
2022-12-06T10:14:55.027Z,16.50
2022-12-06T10:17:52.079Z,9.82
2022-12-06T10:20:37.787Z,5.82
2022-12-06T10:23:30.514Z,5.43
2022-12-06T10:26:30.467Z,5.05
2022-12-06T10:29:03.936Z,5.07
2022-12-06T10:31:49.857Z,4.53
2022-12-06T10:34:20.345Z,5.00
2022-12-06T10:37:06.110Z,5.78
2022-12-06T10:39:57.708Z,4.95
2022-12-06T10:42:37.241Z,5.28
2022-12-06T10:45:46.425Z,5.13
2022-12-06T10:48:26.412Z,4.22
2022-12-06T10:51:09.699Z,4.57
2022-12-06T10:54:20.277Z,4.97
2022-12-06T10:56:51.629Z,5.18
2022-12-06T10:59:37.135Z,4.55
2022-12-06T11:05:58.085Z,4.68
2022-12-06T11:09:19.569Z,4.50
2022-12-06T11:11:46.864Z,3.75
2022-12-06T11:14:38.343Z,4.50
2022-12-06T11:17:16.092Z,4.38
2022-12-06T11:19:49.770Z,4.05
2022-12-06T11:22:16.972Z,3.95
2022-12-06T11:25:16.534Z,4.00
2022-12-06T11:27:52.409Z,5.00
2022-12-06T11:30:21.132Z,4.28
2022-12-06T11:32:52.559Z,4.10
2022-12-06T11:35:25.468Z,4.15
2022-12-06T11:38:01.100Z,4.43
2022-12-06T11:40:37.818Z,4.53
2022-12-06T11:43:08.294Z,4.53
2022-12-06T11:45:39.802Z,4.18
2022-12-06T11:48:19.221Z,3.92
2022-12-06T11:50:48.422Z,5.50
2022-12-06T11:53:30.577Z,4.47
2022-12-06T11:56:03.430Z,6.40
2022-12-06T11:58:43.907Z,5.65
2022-12-06T12:01:14.586Z,5.40
2022-12-06T12:03:43.935Z,4.38
2022-12-06T12:06:27.598Z,4.63
2022-12-06T12:09:05.151Z,4.80
2022-12-06T12:11:34.911Z,4.40
2022-12-06T12:14:13.378Z,5.25
2022-12-06T12:16:49.915Z,5.35
2022-12-06T12:19:40.251Z,5.60
2022-12-06T12:27:49.470Z,5.70
2022-12-06T12:30:35.709Z,6.32
2022-12-06T12:33:07.522Z,6.07
2022-12-06T12:50:05.008Z,6.07
2022-12-06T12:59:42.697Z,6.60
2022-12-06T13:02:40.804Z,8.18
2022-12-06T13:05:44.885Z,6.88
2022-12-06T13:08:19.196Z,6.05
2022-12-06T13:10:58.523Z,7.25
2022-12-06T13:13:30.847Z,8.18
2022-12-06T13:16:00.199Z,7.80
2022-12-06T13:18:39.303Z,7.43
2022-12-06T13:21:22.666Z,7.22
2022-12-06T13:23:57.029Z,6.35
2022-12-06T13:26:39.278Z,7.13
2022-12-06T13:29:24.098Z,7.03
2022-12-06T13:31:53.810Z,7.88
2022-12-06T13:34:38.932Z,7.63
2022-12-06T13:37:28.971Z,7.60
2022-12-06T13:39:59.727Z,7.68
2022-12-06T13:42:29.887Z,7.18
2022-12-06T13:44:59.948Z,7.45
2022-12-06T13:47:27.344Z,7.07
2022-12-06T13:49:58.786Z,6.80
2022-12-06T13:52:47.102Z,7.03
2022-12-06T13:55:26.514Z,6.93
2022-12-06T13:57:56.492Z,8.17
2022-12-06T14:00:29.658Z,7.57
2022-12-06T14:03:13.340Z,6.22
2022-12-06T14:08:27.377Z,7.03
2022-12-06T14:11:16.481Z,8.02
2022-12-06T14:17:04.910Z,7.28
2022-12-06T14:19:46.323Z,7.83
2022-12-06T14:22:35.045Z,8.68
2022-12-06T14:25:06.116Z,8.80
2022-12-06T14:27:45.143Z,7.57
2022-12-06T14:30:26.169Z,7.13
2022-12-06T14:33:03.034Z,7.30
2022-12-06T14:35:36.191Z,7.93
2022-12-06T14:38:32.658Z,8.15
2022-12-06T14:41:22.180Z,7.95
2022-12-06T14:43:49.951Z,7.03
2022-12-06T14:46:21.303Z,7.75
2022-12-06T14:49:07.982Z,6.53
2022-12-06T14:51:48.932Z,6.10
2022-12-06T14:54:42.012Z,7.82
2022-12-06T14:57:49.106Z,7.15
2022-12-06T15:00:27.470Z,7.45
2022-12-06T15:06:12.400Z,6.85
2022-12-06T15:08:55.347Z,7.93
2022-12-06T15:11:48.680Z,7.40
2022-12-06T15:14:16.377Z,7.57
2022-12-06T15:17:25.218Z,7.35
2022-12-06T15:19:53.838Z,7.80
2022-12-06T15:22:29.271Z,7.43
2022-12-06T15:25:00.518Z,7.75
2022-12-06T15:27:28.228Z,8.13
2022-12-06T15:29:55.878Z,8.40
2022-12-06T15:32:25.083Z,7.55
2022-12-06T15:34:52.724Z,8.32
2022-12-06T15:40:08.762Z,9.02
2022-12-06T15:42:36.259Z,9.25
2022-12-06T15:45:04.111Z,10.52
2022-12-06T15:47:31.824Z,8.80
2022-12-06T15:50:03.063Z,7.30
2022-12-06T15:52:30.645Z,6.85
2022-12-06T15:54:58.232Z,8.50
2022-12-06T15:57:28.550Z,11.50
2022-12-06T16:00:14.516Z,10.48
2022-12-06T16:02:47.486Z,8.95
2022-12-06T16:05:19.205Z,8.20
2022-12-06T16:07:47.489Z,7.43
2022-12-06T16:10:37.144Z,7.72
2022-12-06T16:13:26.668Z,10.68
2022-12-06T16:15:56.155Z,11.60
2022-12-06T16:18:30.401Z,10.07
2022-12-06T16:21:30.821Z,14.55
2022-12-06T16:24:13.057Z,14.85
2022-12-06T16:26:44.056Z,20.95
2022-12-06T16:31:41.174Z,13.23
2022-12-06T16:34:08.932Z,9.30
2022-12-06T16:37:02.980Z,6.78
2022-12-06T16:39:32.256Z,6.45
2022-12-06T16:41:59.784Z,6.38
2022-12-06T16:44:27.254Z,7.10
2022-12-06T16:46:54.924Z,7.65
2022-12-06T16:49:46.978Z,7.95
2022-12-06T16:52:15.932Z,8.18
2022-12-06T16:54:44.089Z,9.25
2022-12-06T16:57:14.800Z,8.35
2022-12-06T16:59:57.314Z,7.38
2022-12-06T17:02:31.950Z,6.80
2022-12-06T17:05:01.567Z,6.80
2022-12-06T17:10:00.649Z,5.60
2022-12-06T17:12:28.372Z,6.20
2022-12-06T17:14:55.948Z,6.25
2022-12-06T17:17:26.333Z,5.20
2022-12-06T17:20:00.318Z,5.75
2022-12-06T17:22:51.490Z,5.57
2022-12-06T17:25:38.634Z,8.30
2022-12-06T17:28:06.103Z,7.15
2022-12-06T17:31:35.925Z,6.45
2022-12-06T17:34:18.663Z,5.25
2022-12-06T17:40:17.419Z,5.50
2022-12-06T17:47:17.160Z,5.80
2022-12-06T17:49:48.744Z,4.75
2022-12-06T17:52:42.389Z,5.03
2022-12-06T17:55:24.518Z,5.30
2022-12-06T17:58:09.695Z,6.13
2022-12-06T18:00:43.463Z,5.50
2022-12-06T18:03:10.787Z,5.60
2022-12-06T18:05:39.632Z,5.97
2022-12-06T18:08:06.995Z,5.30
2022-12-06T18:10:34.440Z,4.97
2022-12-06T18:13:03.096Z,5.93
2022-12-06T18:15:39.717Z,6.15
2022-12-06T18:18:06.974Z,5.85
2022-12-06T18:20:34.269Z,5.80
2022-12-06T18:23:01.524Z,5.65
2022-12-06T18:25:28.849Z,4.82
2022-12-06T18:27:56.105Z,5.25
2022-12-06T18:30:23.389Z,5.55
2022-12-06T18:32:50.700Z,6.22
2022-12-06T18:35:18.465Z,6.18
2022-12-06T18:37:46.376Z,6.28
2022-12-06T18:40:13.928Z,6.40
2022-12-06T18:42:41.324Z,6.45
2022-12-06T18:45:09.113Z,6.75
2022-12-06T18:47:40.440Z,5.93
2022-12-06T18:50:10.552Z,6.60
2022-12-06T18:52:37.971Z,6.25
2022-12-06T18:55:05.560Z,5.88
2022-12-06T18:57:37.599Z,6.03
2022-12-06T19:00:06.725Z,6.78
2022-12-06T19:02:34.554Z,7.78
2022-12-06T19:05:02.299Z,7.50
2022-12-06T19:07:30.191Z,8.68
2022-12-06T19:10:01.072Z,6.95
2022-12-06T19:12:28.589Z,8.45
2022-12-06T19:14:59.209Z,7.43
2022-12-06T19:17:26.660Z,7.10
2022-12-06T19:19:54.016Z,6.75
2022-12-06T19:22:21.533Z,7.88
2022-12-06T19:24:49.016Z,6.72
2022-12-06T19:27:20.742Z,7.20
2022-12-06T19:29:51.466Z,6.25
2022-12-06T19:32:19.543Z,6.68
2022-12-06T19:34:47.488Z,7.10
2022-12-06T19:37:14.961Z,7.88
2022-12-06T19:39:44.807Z,7.28
2022-12-06T19:42:30.706Z,6.82
2022-12-06T19:44:58.030Z,7.53
2022-12-06T19:47:25.585Z,8.13
2022-12-06T19:49:54.667Z,7.53
2022-12-06T19:52:25.383Z,7.35
2022-12-06T19:55:00.039Z,7.57
2022-12-06T19:57:27.412Z,7.53
2022-12-06T19:59:57.415Z,7.68
2022-12-06T20:02:24.761Z,8.13
2022-12-06T20:04:52.185Z,7.07
2022-12-06T20:07:19.531Z,8.15
2022-12-06T20:09:46.872Z,9.13
2022-12-06T20:12:14.915Z,8.73
2022-12-06T20:14:45.120Z,8.27
2022-12-06T20:17:14.519Z,7.57
2022-12-06T20:19:51.924Z,7.87
2022-12-06T20:22:19.780Z,7.57
2022-12-06T20:24:48.278Z,8.40
2022-12-06T20:27:15.612Z,7.95
2022-12-06T20:29:42.959Z,8.27
2022-12-06T20:32:11.163Z,7.10
2022-12-06T20:34:39.159Z,8.45
2022-12-06T20:37:07.988Z,7.72
2022-12-06T20:39:36.185Z,8.35
2022-12-06T20:42:05.764Z,7.72
2022-12-06T20:44:33.519Z,8.27
2022-12-06T20:47:01.281Z,8.20
2022-12-06T20:49:28.613Z,7.93
2022-12-06T20:51:56.720Z,7.85
2022-12-06T20:54:24.062Z,7.85
2022-12-06T20:56:53.354Z,7.72
2022-12-06T20:59:21.111Z,7.70
2022-12-06T21:01:48.613Z,7.68
2022-12-06T21:04:19.077Z,7.65
2022-12-06T21:09:13.504Z,8.50
2022-12-06T21:11:40.907Z,8.88
2022-12-06T21:14:08.623Z,8.45
2022-12-06T21:16:38.233Z,8.65
2022-12-06T21:19:07.930Z,8.82
2022-12-06T21:21:40.323Z,8.77
2022-12-06T21:24:13.109Z,9.32
2022-12-06T21:26:41.404Z,7.40
2022-12-06T21:29:31.464Z,9.25
2022-12-06T21:32:00.938Z,8.70
2022-12-06T21:34:28.260Z,9.03
2022-12-06T21:36:55.595Z,8.10
2022-12-06T21:39:23.004Z,8.25
2022-12-06T21:41:50.312Z,8.32
2022-12-06T21:44:17.590Z,8.27
2022-12-06T21:46:45.002Z,7.82
2022-12-06T21:49:12.939Z,9.40
2022-12-06T21:51:40.243Z,8.68
2022-12-06T21:54:07.659Z,8.07
2022-12-06T21:56:35.198Z,8.50
2022-12-06T21:59:02.664Z,8.88
2022-12-06T22:01:30.941Z,8.55
2022-12-06T22:04:01.479Z,8.60
2022-12-06T22:09:01.492Z,8.50
2022-12-06T22:11:30.046Z,9.40
2022-12-06T22:13:59.180Z,8.65
2022-12-06T22:16:26.887Z,9.35
2022-12-06T22:18:55.249Z,9.25
2022-12-06T22:21:25.379Z,9.02
2022-12-06T22:23:53.291Z,9.57
2022-12-06T22:26:22.373Z,9.85
2022-12-06T22:28:50.351Z,9.35
2022-12-06T22:31:24.090Z,9.30
2022-12-06T22:33:51.867Z,9.43
2022-12-06T22:36:21.008Z,9.30
2022-12-06T22:38:52.373Z,9.60
2022-12-06T22:41:20.093Z,10.18
2022-12-06T22:43:50.763Z,9.77
2022-12-06T22:46:18.180Z,9.07
2022-12-06T22:48:45.816Z,8.77
2022-12-06T22:51:24.699Z,9.35
2022-12-06T22:53:57.638Z,9.10
2022-12-06T22:56:25.406Z,9.27
2022-12-06T22:58:54.097Z,10.60
2022-12-06T23:01:23.580Z,10.95
2022-12-06T23:03:52.418Z,9.47
2022-12-06T23:06:22.215Z,9.18
2022-12-06T23:08:49.939Z,10.25
2022-12-06T23:11:29.021Z,9.38
2022-12-06T23:13:56.657Z,9.05
2022-12-06T23:16:26.606Z,9.98
2022-12-06T23:18:53.944Z,9.27
2022-12-06T23:21:23.480Z,8.60
2022-12-06T23:23:52.912Z,8.60
2022-12-06T23:26:25.096Z,9.17
2022-12-06T23:28:52.419Z,9.82
2022-12-06T23:31:22.414Z,9.85
2022-12-06T23:33:56.603Z,9.20
2022-12-06T23:36:26.756Z,10.60
2022-12-06T23:38:54.412Z,9.38
2022-12-06T23:41:24.036Z,9.57
2022-12-06T23:43:51.760Z,9.10
2022-12-06T23:46:22.627Z,8.48
2022-12-06T23:48:50.885Z,9.43
2022-12-06T23:51:20.653Z,9.05
2022-12-06T23:53:57.427Z,9.43
2022-12-06T23:56:25.890Z,9.38
2022-12-06T23:58:53.440Z,8.75
